Time;durP1;ratioP1;P1;durP2;ratioP2;P2;SDS_P1;SDS_P2;PMS_P1;PMS_P2;Temp;Humidity;BMP_temperature;BMP_pressure;BME280_temperature;BME280_humidity;BME280_pressure;Samples;Min_cycle;Max_cycle;Signal;HPM_P1;HPM_P2
2023/10/08 00:03:10;;;;;;;12.57;11.30;;;;;;;;;;5034415;28;20045;-60
2023/10/08 00:05:41;;;;;;;107.05;97.93;;;;;;;;;;5034022;28;20022;-59
2023/10/08 00:08:09;;;;;;;16.02;14.13;;;;;;;;;;5034099;28;20039;-59
2023/10/08 00:10:34;;;;;;;10.00;8.48;;;;;;;;;;5033157;28;20017;-61
2023/10/08 00:13:00;;;;;;;9.82;8.35;;;;;;;;;;5034029;28;20448;-60
2023/10/08 00:15:25;;;;;;;15.50;12.77;;;;;;;;;;5033645;28;20500;-61
2023/10/08 00:17:52;;;;;;;14.68;13.35;;;;;;;;;;5033268;28;20025;-58
2023/10/08 00:20:25;;;;;;;23.10;21.30;;;;;;;;;;5032888;28;20048;-61
2023/10/08 00:22:54;;;;;;;14.95;12.25;;;;;;;;;;5033705;28;20033;-60
2023/10/08 00:25:19;;;;;;;11.50;10.40;;;;;;;;;;5033809;28;20056;-60
2023/10/08 00:27:45;;;;;;;10.10;7.25;;;;;;;;;;5033337;28;20022;-61
2023/10/08 00:30:17;;;;;;;36.65;33.92;;;;;;;;;;5032920;28;20048;-60
2023/10/08 00:32:42;;;;;;;23.98;22.08;;;;;;;;;;5032871;28;20541;-61
2023/10/08 00:35:12;;;;;;;12.17;9.23;;;;;;;;;;5033718;28;20112;-58
2023/10/08 00:37:37;;;;;;;13.43;12.15;;;;;;;;;;5033258;28;20013;-58
2023/10/08 00:40:04;;;;;;;19.23;17.53;;;;;;;;;;5029895;28;20516;-59
2023/10/08 00:42:30;;;;;;;14.85;13.32;;;;;;;;;;5033118;28;20028;-59
2023/10/08 00:44:56;;;;;;;10.68;8.73;;;;;;;;;;5033207;28;20025;-58
2023/10/08 00:47:26;;;;;;;23.88;22.13;;;;;;;;;;5033565;28;20026;-58
2023/10/08 00:50:02;;;;;;;215.02;194.63;;;;;;;;;;5033814;28;20101;-58
2023/10/08 00:52:30;;;;;;;13.23;11.38;;;;;;;;;;5033382;28;20021;-60
2023/10/08 00:57:34;;;;;;;33.15;30.63;;;;;;;;;;5033809;28;20026;-59
2023/10/08 00:59:59;;;;;;;48.53;45.15;;;;;;;;;;5032423;28;20021;-60
2023/10/08 01:02:28;;;;;;;374.50;340.27;;;;;;;;;;5032946;28;20392;-59
2023/10/08 01:04:54;;;;;;;15.30;12.95;;;;;;;;;;5031786;28;20036;-60
2023/10/08 01:07:20;;;;;;;87.28;78.60;;;;;;;;;;5032422;28;20029;-60
2023/10/08 01:09:51;;;;;;;32.15;29.73;;;;;;;;;;5032156;28;20018;-59
2023/10/08 01:12:27;;;;;;;39.13;36.20;;;;;;;;;;5031540;28;20025;-60
2023/10/08 01:14:53;;;;;;;24.65;22.75;;;;;;;;;;5032754;28;20158;-59
2023/10/08 01:17:23;;;;;;;29.77;27.27;;;;;;;;;;5032586;28;20025;-58
2023/10/08 01:19:59;;;;;;;14.50;13.27;;;;;;;;;;5031649;28;20036;-60
2023/10/08 01:22:28;;;;;;;21.00;19.25;;;;;;;;;;5032429;28;20045;-60
2023/10/08 01:24:53;;;;;;;24.23;22.38;;;;;;;;;;5032262;28;20096;-61
2023/10/08 01:27:24;;;;;;;31.77;29.40;;;;;;;;;;5032304;28;20183;-60
2023/10/08 01:29:50;;;;;;;27.60;25.40;;;;;;;;;;5030510;28;20022;-60
2023/10/08 01:32:19;;;;;;;12.25;10.15;;;;;;;;;;5032148;28;20017;-61
2023/10/08 01:34:47;;;;;;;47.22;43.80;;;;;;;;;;5031970;28;20021;-61
2023/10/08 01:37:19;;;;;;;63.92;58.33;;;;;;;;;;5031756;28;20022;-60
2023/10/08 01:39:45;;;;;;;131.65;121.93;;;;;;;;;;5031557;28;20040;-59
2023/10/08 01:42:17;;;;;;;64.60;60.40;;;;;;;;;;5032209;28;20096;-59
2023/10/08 01:44:48;;;;;;;106.78;98.75;;;;;;;;;;5032001;28;20054;-58
2023/10/08 01:47:15;;;;;;;25.20;23.17;;;;;;;;;;5031649;28;20473;-60
2023/10/08 01:49:42;;;;;;;21.75;19.45;;;;;;;;;;5031218;28;20018;-60
2023/10/08 01:52:13;;;;;;;28.38;25.98;;;;;;;;;;5031945;28;20442;-60
2023/10/08 01:54:39;;;;;;;20.60;18.75;;;;;;;;;;5031645;28;20096;-59
2023/10/08 01:57:05;;;;;;;26.40;24.00;;;;;;;;;;5031962;28;20513;-59
2023/10/08 01:59:31;;;;;;;17.33;15.93;;;;;;;;;;5030074;28;20096;-58
2023/10/08 02:01:57;;;;;;;36.35;33.70;;;;;;;;;;5031765;28;20057;-59
2023/10/08 02:04:22;;;;;;;8.77;7.88;;;;;;;;;;5030266;28;20021;-59
2023/10/08 02:06:47;;;;;;;16.00;14.80;;;;;;;;;;5030378;28;20028;-59
2023/10/08 02:09:13;;;;;;;11.33;10.60;;;;;;;;;;5031236;28;20022;-60
2023/10/08 02:11:45;;;;;;;7.47;6.90;;;;;;;;;;5031172;28;20611;-58
2023/10/08 02:14:11;;;;;;;13.85;12.93;;;;;;;;;;5031523;28;20057;-59
2023/10/08 02:16:37;;;;;;;14.80;13.65;;;;;;;;;;5031956;28;20052;-59
2023/10/08 02:19:02;;;;;;;8.82;8.23;;;;;;;;;;5036695;28;20042;-60
2023/10/08 02:21:27;;;;;;;9.53;8.87;;;;;;;;;;5037786;28;20029;-60
2023/10/08 02:23:53;;;;;;;3.07;2.57;;;;;;;;;;5040434;28;20481;-61
2023/10/08 02:26:19;;;;;;;82.00;73.70;;;;;;;;;;5033158;28;20017;-60
2023/10/08 02:28:44;;;;;;;4.63;4.22;;;;;;;;;;5031569;28;20500;-60
2023/10/08 02:31:09;;;;;;;11.87;11.03;;;;;;;;;;5031357;28;20025;-60
2023/10/08 02:33:34;;;;;;;6.77;6.27;;;;;;;;;;5030911;28;20112;-58
2023/10/08 02:36:01;;;;;;;7.43;6.93;;;;;;;;;;5031411;28;20386;-61
2023/10/08 02:38:28;;;;;;;21.75;20.50;;;;;;;;;;5032118;28;20026;-59
2023/10/08 02:40:56;;;;;;;6.45;6.03;;;;;;;;;;5031396;28;20025;-59
2023/10/08 02:43:21;;;;;;;17.92;16.85;;;;;;;;;;5032793;28;20021;-58
2023/10/08 02:45:49;;;;;;;2.90;2.60;;;;;;;;;;5032010;28;20029;-60
2023/10/08 02:48:16;;;;;;;24.40;22.45;;;;;;;;;;5030870;28;20057;-60
2023/10/08 02:50:45;;;;;;;19.23;17.98;;;;;;;;;;5031116;28;20052;-59
2023/10/08 02:53:10;;;;;;;4.45;4.10;;;;;;;;;;5031101;28;20028;-59
2023/10/08 02:55:46;;;;;;;6.65;6.18;;;;;;;;;;5030546;28;20030;-60
2023/10/08 02:58:14;;;;;;;40.47;37.83;;;;;;;;;;5030933;28;20393;-60
2023/10/08 03:00:40;;;;;;;10.65;9.95;;;;;;;;;;5030275;28;20041;-59
2023/10/08 03:03:15;;;;;;;;;;;;;;;;;;5031203;28;20108;-60
2023/10/08 03:05:40;;;;;;;1.20;1.10;;;;;;;;;;5030634;28;20010;-59
2023/10/08 03:08:10;;;;;;;11.70;10.87;;;;;;;;;;5030823;28;20477;-60
2023/10/08 03:10:35;;;;;;;7.57;7.07;;;;;;;;;;5030213;28;20428;-60
2023/10/08 03:13:04;;;;;;;1.50;1.37;;;;;;;;;;5030599;28;20407;-59
2023/10/08 03:15:30;;;;;;;2.28;1.95;;;;;;;;;;5031403;28;20017;-58
2023/10/08 03:17:57;;;;;;;2.17;1.98;;;;;;;;;;5030878;28;20022;-60
2023/10/08 03:20:38;;;;;;;2.22;1.83;;;;;;;;;;5030043;28;20083;-60
2023/10/08 03:23:12;;;;;;;2.35;2.15;;;;;;;;;;5030466;28;20028;-60
2023/10/08 03:25:41;;;;;;;4.18;3.85;;;;;;;;;;5030539;28;20021;-62
2023/10/08 03:28:08;;;;;;;27.48;25.73;;;;;;;;;;5030710;28;20038;-61
2023/10/08 03:30:40;;;;;;;4.97;4.57;;;;;;;;;;5030272;28;20036;-59
2023/10/08 03:33:10;;;;;;;51.60;46.83;;;;;;;;;;5030638;28;20048;-60
2023/10/08 03:35:36;;;;;;;1.98;1.85;;;;;;;;;;5030615;28;20117;-60
2023/10/08 03:38:18;;;;;;;;;;;;;;;;;;5030983;28;20088;-62
2023/10/08 03:40:48;;;;;;;4.13;3.83;;;;;;;;;;5029986;28;19947;-60
2023/10/08 03:43:23;;;;;;;2.28;2.15;;;;;;;;;;5030055;28;20481;-61
2023/10/08 03:45:53;;;;;;;5.65;5.22;;;;;;;;;;5029178;28;20013;-61
2023/10/08 03:48:22;;;;;;;67.30;60.58;;;;;;;;;;5030155;28;20523;-59
2023/10/08 03:50:56;;;;;;;3.50;2.45;;;;;;;;;;5029986;28;20025;-59
2023/10/08 03:53:22;;;;;;;57.08;53.15;;;;;;;;;;5030190;28;20135;-60
2023/10/08 03:55:51;;;;;;;6.43;2.28;;;;;;;;;;5030404;28;20026;-60
2023/10/08 03:58:29;;;;;;;6.43;4.25;;;;;;;;;;5030265;28;20529;-60
2023/10/08 04:01:08;;;;;;;8.65;4.18;;;;;;;;;;5033534;28;20105;-60
2023/10/08 04:03:57;;;;;;;4.68;3.10;;;;;;;;;;5034277;28;20016;-60
2023/10/08 04:06:22;;;;;;;6.75;2.72;;;;;;;;;;5033576;28;20028;-60
2023/10/08 04:11:49;;;;;;;16.00;14.32;;;;;;;;;;5033456;28;20022;-59
2023/10/08 04:14:18;;;;;;;5.72;3.60;;;;;;;;;;5033837;28;20026;-60
2023/10/08 04:16:43;;;;;;;5.18;1.85;;;;;;;;;;5033374;28;20377;-59
2023/10/08 04:19:09;;;;;;;6.22;3.65;;;;;;;;;;5033233;28;20075;-62
2023/10/08 04:21:34;;;;;;;6.88;6.03;;;;;;;;;;5033150;28;20075;-59
2023/10/08 04:24:03;;;;;;;4.07;1.83;;;;;;;;;;5033345;28;20021;-61
2023/10/08 04:26:28;;;;;;;6.55;1.88;;;;;;;;;;5033658;28;20422;-61
2023/10/08 04:28:58;;;;;;;5.37;1.30;;;;;;;;;;5033359;28;20156;-61
2023/10/08 04:31:37;;;;;;;7.35;4.55;;;;;;;;;;5032774;28;20474;-60
2023/10/08 04:34:07;;;;;;;4.90;1.27;;;;;;;;;;5033145;28;20020;-63
2023/10/08 04:36:32;;;;;;;8.18;6.07;;;;;;;;;;5033168;28;20496;-60
2023/10/08 04:39:04;;;;;;;5.57;3.43;;;;;;;;;;5033042;28;20026;-59
2023/10/08 04:41:29;;;;;;;6.60;4.13;;;;;;;;;;5032700;28;20029;-61
2023/10/08 04:43:55;;;;;;;9.35;7.38;;;;;;;;;;5032945;28;20032;-62
2023/10/08 04:46:53;;;;;;;3.75;1.50;;;;;;;;;;5032958;28;20025;-63
2023/10/08 04:49:30;;;;;;;6.75;3.53;;;;;;;;;;5032607;28;20044;-61
2023/10/08 04:51:56;;;;;;;4.88;1.75;;;;;;;;;;5032909;28;20477;-61
2023/10/08 04:54:23;;;;;;;10.05;6.78;;;;;;;;;;5032621;28;20025;-62
2023/10/08 04:56:49;;;;;;;4.65;1.73;;;;;;;;;;5032737;28;20382;-63
2023/10/08 04:59:14;;;;;;;6.20;1.83;;;;;;;;;;5032685;28;20404;-64
2023/10/08 05:01:47;;;;;;;11.37;10.27;;;;;;;;;;5032763;28;20125;-63
2023/10/08 05:09:51;;;;;;;;;;;;;;;;;;5032498;28;20048;-62
2023/10/08 05:23:20;;;;;;;4.07;1.42;;;;;;;;;;5032697;28;20480;-63
2023/10/08 05:28:30;;;;;;;3.83;1.25;;;;;;;;;;5032211;28;20102;-61
2023/10/08 05:39:32;;;;;;;8.10;6.15;;;;;;;;;;5029969;28;20175;-62
2023/10/08 05:44:45;;;;;;;;;;;;;;;;;;5033473;28;20088;-61
2023/10/08 05:47:38;;;;;;;;;;;;;;;;;;5033482;28;19959;-62
2023/10/08 05:55:26;;;;;;;7.35;6.68;;;;;;;;;;5031680;28;20018;-61
2023/10/08 05:58:13;;;;;;;18.05;16.73;;;;;;;;;;5031558;28;20049;-60
2023/10/08 06:03:32;;;;;;;5.60;3.38;;;;;;;;;;5031500;28;20021;-61
2023/10/08 06:07:10;;;;;;;9.73;2.33;;;;;;;;;;5031513;28;20036;-62
2023/10/08 06:09:06;;;;;;;4.43;1.88;;;;;;;;;;5030653;28;20049;-61
2023/10/08 06:14:13;;;;;;;6.18;5.15;;;;;;;;;;5031443;28;20061;-61
2023/10/08 06:16:42;;;;;;;5.57;2.80;;;;;;;;;;5031747;28;20025;-61
2023/10/08 06:19:09;;;;;;;4.05;1.55;;;;;;;;;;5031699;28;20096;-61
2023/10/08 06:21:34;;;;;;;8.63;3.13;;;;;;;;;;5031733;28;20020;-61
2023/10/08 06:24:00;;;;;;;5.23;1.30;;;;;;;;;;5031154;28;20038;-61
2023/10/08 06:26:26;;;;;;;4.50;1.38;;;;;;;;;;5031488;28;20482;-62
2023/10/08 06:28:57;;;;;;;5.00;3.95;;;;;;;;;;5031012;28;20543;-62
2023/10/08 06:31:24;;;;;;;4.28;1.80;;;;;;;;;;5030939;28;20027;-62
2023/10/08 06:33:50;;;;;;;9.27;7.97;;;;;;;;;;5031062;28;20422;-61
2023/10/08 06:36:15;;;;;;;5.70;2.88;;;;;;;;;;5031102;28;20547;-61
2023/10/08 06:38:49;;;;;;;7.68;3.08;;;;;;;;;;5030956;28;20017;-61
2023/10/08 06:41:17;;;;;;;4.95;1.80;;;;;;;;;;5030916;28;20028;-61
2023/10/08 06:43:47;;;;;;;6.57;4.88;;;;;;;;;;5030834;28;20017;-61
2023/10/08 06:46:12;;;;;;;6.10;2.00;;;;;;;;;;5031724;28;20064;-59
2023/10/08 06:48:41;;;;;;;24.05;22.55;;;;;;;;;;5030973;28;20563;-60
2023/10/08 06:51:07;;;;;;;6.28;2.90;;;;;;;;;;5030849;28;20025;-59
2023/10/08 06:53:33;;;;;;;5.97;2.20;;;;;;;;;;5031045;28;20420;-59
2023/10/08 06:56:03;;;;;;;7.10;1.77;;;;;;;;;;5030928;28;20052;-60
2023/10/08 06:58:31;;;;;;;5.95;2.50;;;;;;;;;;5031206;28;20026;-60
2023/10/08 07:00:58;;;;;;;6.07;1.83;;;;;;;;;;5030501;28;20024;-58
2023/10/08 07:03:24;;;;;;;6.20;2.95;;;;;;;;;;5030385;28;20029;-59
2023/10/08 07:05:59;;;;;;;9.02;7.03;;;;;;;;;;5030887;28;20034;-61
2023/10/08 07:08:26;;;;;;;5.97;2.33;;;;;;;;;;5030695;28;20028;-62
2023/10/08 07:10:51;;;;;;;10.68;6.28;;;;;;;;;;5030138;28;20541;-60
2023/10/08 07:13:21;;;;;;;7.50;1.98;;;;;;;;;;5030679;28;20053;-61
2023/10/08 07:15:47;;;;;;;7.03;3.95;;;;;;;;;;5030448;28;20104;-61
2023/10/08 07:18:12;;;;;;;4.53;1.83;;;;;;;;;;5030749;28;20060;-60
2023/10/08 07:20:39;;;;;;;4.47;1.50;;;;;;;;;;5030139;28;20049;-59
2023/10/08 07:23:09;;;;;;;8.93;6.13;;;;;;;;;;5030615;28;20029;-59
2023/10/08 07:25:37;;;;;;;6.65;4.05;;;;;;;;;;5030605;28;20044;-60
2023/10/08 07:28:04;;;;;;;5.30;1.80;;;;;;;;;;5030631;28;20032;-60
2023/10/08 07:30:32;;;;;;;4.80;2.35;;;;;;;;;;5030316;28;20013;-60
2023/10/08 07:32:58;;;;;;;6.80;1.90;;;;;;;;;;5029559;28;20016;-61
2023/10/08 07:35:29;;;;;;;4.15;1.70;;;;;;;;;;5032909;28;20014;-61
2023/10/08 07:37:54;;;;;;;8.70;6.13;;;;;;;;;;5034565;28;20033;-61
2023/10/08 07:40:20;;;;;;;5.53;2.90;;;;;;;;;;5034021;28;20036;-60
2023/10/08 07:42:46;;;;;;;5.68;4.68;;;;;;;;;;5034609;28;20079;-60
2023/10/08 07:45:17;;;;;;;8.82;8.02;;;;;;;;;;5034021;28;20477;-60
2023/10/08 07:47:43;;;;;;;6.93;5.45;;;;;;;;;;5036443;28;20084;-60
2023/10/08 07:50:11;;;;;;;9.13;2.10;;;;;;;;;;5033963;28;20017;-61
2023/10/08 07:52:37;;;;;;;3.90;1.92;;;;;;;;;;5034521;28;20489;-60
2023/10/08 07:55:02;;;;;;;6.77;6.10;;;;;;;;;;5034215;28;20049;-61
2023/10/08 07:57:27;;;;;;;5.07;3.60;;;;;;;;;;5034467;28;20440;-61
2023/10/08 07:59:54;;;;;;;10.80;9.37;;;;;;;;;;5034281;28;20117;-61
2023/10/08 08:02:23;;;;;;;7.63;2.80;;;;;;;;;;5034515;28;20411;-60
2023/10/08 08:04:50;;;;;;;6.30;3.85;;;;;;;;;;5034378;28;20535;-61
2023/10/08 08:07:15;;;;;;;9.20;8.50;;;;;;;;;;5034248;28;20029;-60
2023/10/08 08:09:50;;;;;;;6.10;5.13;;;;;;;;;;5033507;28;20025;-61
2023/10/08 08:12:16;;;;;;;6.50;3.05;;;;;;;;;;5034004;28;20037;-62
2023/10/08 08:14:41;;;;;;;4.80;3.75;;;;;;;;;;5033821;28;20033;-61
2023/10/08 08:17:16;;;;;;;9.97;9.23;;;;;;;;;;5033800;28;20021;-61
2023/10/08 08:19:44;;;;;;;5.78;4.63;;;;;;;;;;5033024;28;20509;-59
2023/10/08 08:22:10;;;;;;;11.05;10.20;;;;;;;;;;5033679;28;20021;-59
2023/10/08 08:24:36;;;;;;;25.10;23.42;;;;;;;;;;5033572;28;20028;-61
2023/10/08 08:27:10;;;;;;;12.68;11.60;;;;;;;;;;5033374;28;20477;-59
2023/10/08 08:29:45;;;;;;;19.13;17.83;;;;;;;;;;5033097;28;20418;-61
2023/10/08 08:32:15;;;;;;;4.50;2.58;;;;;;;;;;5033700;28;20017;-62
2023/10/08 08:34:43;;;;;;;6.95;3.03;;;;;;;;;;5033064;28;20103;-60
2023/10/08 08:37:08;;;;;;;6.68;4.97;;;;;;;;;;5033476;28;20488;-59
2023/10/08 08:39:35;;;;;;;7.57;5.80;;;;;;;;;;5032719;28;20071;-60
2023/10/08 08:42:04;;;;;;;9.52;3.92;;;;;;;;;;5033127;28;20429;-60
2023/10/08 08:44:30;;;;;;;14.10;12.88;;;;;;;;;;5033279;28;20021;-60
2023/10/08 08:46:58;;;;;;;12.18;4.13;;;;;;;;;;5032451;28;20013;-59
2023/10/08 08:49:23;;;;;;;9.50;8.60;;;;;;;;;;5032554;28;20028;-61
2023/10/08 08:51:53;;;;;;;16.83;15.23;;;;;;;;;;5033077;28;20021;-61
2023/10/08 08:54:19;;;;;;;6.53;3.03;;;;;;;;;;5032834;28;20075;-59
2023/10/08 08:56:44;;;;;;;9.30;8.23;;;;;;;;;;5032758;28;20100;-60
2023/10/08 08:59:13;;;;;;;8.27;3.80;;;;;;;;;;5032438;28;20117;-60
2023/10/08 09:01:38;;;;;;;11.25;10.27;;;;;;;;;;5032615;28;20023;-61
2023/10/08 09:04:07;;;;;;;7.60;5.80;;;;;;;;;;5032647;28;20017;-61
2023/10/08 09:06:33;;;;;;;14.32;13.10;;;;;;;;;;5032770;28;20019;-61
2023/10/08 09:11:45;;;;;;;27.02;25.23;;;;;;;;;;5033519;28;20040;-60
2023/10/08 09:14:10;;;;;;;6.83;2.37;;;;;;;;;;5032419;28;20033;-60
2023/10/08 09:16:35;;;;;;;8.73;5.27;;;;;;;;;;5032917;28;20029;-60
2023/10/08 09:19:01;;;;;;;9.47;4.30;;;;;;;;;;5032103;28;20500;-60
2023/10/08 09:21:26;;;;;;;10.23;8.93;;;;;;;;;;5032062;28;20107;-60
2023/10/08 09:23:54;;;;;;;11.30;10.30;;;;;;;;;;5031059;28;20028;-60
2023/10/08 09:26:22;;;;;;;8.68;5.32;;;;;;;;;;5032519;28;20100;-59
2023/10/08 09:28:48;;;;;;;33.25;30.90;;;;;;;;;;5032206;28;20021;-61
2023/10/08 09:31:13;;;;;;;13.63;12.25;;;;;;;;;;5031867;28;20072;-60
2023/10/08 09:33:39;;;;;;;24.58;22.60;;;;;;;;;;5032090;28;20025;-60
2023/10/08 09:36:05;;;;;;;14.07;10.38;;;;;;;;;;5031696;28;20022;-59
2023/10/08 09:38:31;;;;;;;6.72;6.03;;;;;;;;;;5032043;28;20036;-59
2023/10/08 09:40:57;;;;;;;19.17;17.88;;;;;;;;;;5031405;28;20030;-61
2023/10/08 09:43:22;;;;;;;10.23;7.43;;;;;;;;;;5032138;28;20030;-60
2023/10/08 09:45:51;;;;;;;21.85;20.27;;;;;;;;;;5032056;28;20479;-60
2023/10/08 09:48:18;;;;;;;37.63;34.90;;;;;;;;;;5031927;28;20392;-59
2023/10/08 09:50:44;;;;;;;;;;;;;;;;;;5032148;28;20018;-60
2023/10/08 09:53:16;;;;;;;9.35;8.40;;;;;;;;;;5032358;28;19909;-60
2023/10/08 09:55:59;;;;;;;20.73;19.13;;;;;;;;;;5031848;28;20109;-60
2023/10/08 09:58:25;;;;;;;8.75;4.22;;;;;;;;;;5031508;28;20112;-61
2023/10/08 10:00:52;;;;;;;19.67;18.23;;;;;;;;;;5031347;28;20038;-59
2023/10/08 10:03:18;;;;;;;11.07;8.63;;;;;;;;;;5032061;28;20028;-60
2023/10/08 10:05:44;;;;;;;;;;;;;;;;;;5032257;28;20052;-61
2023/10/08 10:08:09;;;;;;;16.80;15.30;;;;;;;;;;5032048;28;20373;-60
2023/10/08 10:10:38;;;;;;;11.73;10.67;;;;;;;;;;5031470;28;20021;-61
2023/10/08 10:13:09;;;;;;;32.67;30.30;;;;;;;;;;5031828;28;20108;-59
2023/10/08 10:15:36;;;;;;;26.25;24.25;;;;;;;;;;5031505;28;20024;-60
2023/10/08 10:18:14;;;;;;;18.75;17.25;;;;;;;;;;5031336;28;20022;-61
2023/10/08 10:20:41;;;;;;;87.13;81.68;;;;;;;;;;5030917;28;20034;-61
2023/10/08 10:23:06;;;;;;;;;;;;;;;;;;5032128;28;20439;-61
2023/10/08 10:25:37;;;;;;;10.52;7.60;;;;;;;;;;5031286;28;19909;-60
2023/10/08 10:28:06;;;;;;;42.13;38.60;;;;;;;;;;5030920;28;20485;-62
2023/10/08 10:30:32;;;;;;;25.15;23.23;;;;;;;;;;5030467;28;20477;-60
2023/10/08 10:32:59;;;;;;;72.60;68.25;;;;;;;;;;5031072;28;20079;-60
2023/10/08 10:35:27;;;;;;;49.10;45.78;;;;;;;;;;5031104;28;20096;-61
2023/10/08 10:37:52;;;;;;;46.58;43.78;;;;;;;;;;5031267;28;20503;-61
2023/10/08 10:40:39;;;;;;;36.50;34.07;;;;;;;;;;5030843;28;20017;-60
2023/10/08 10:43:06;;;;;;;20.05;17.92;;;;;;;;;;5031122;28;20018;-62
2023/10/08 10:45:43;;;;;;;76.43;71.55;;;;;;;;;;5031025;28;20052;-61
2023/10/08 10:48:14;;;;;;;23.65;21.75;;;;;;;;;;5031434;28;20033;-61
2023/10/08 10:50:48;;;;;;;37.03;34.50;;;;;;;;;;5030716;28;20025;-61
2023/10/08 10:53:14;;;;;;;12.85;6.80;;;;;;;;;;5030923;28;20022;-60
2023/10/08 10:55:47;;;;;;;20.92;19.15;;;;;;;;;;5030340;28;20045;-60
2023/10/08 10:58:15;;;;;;;13.85;12.65;;;;;;;;;;5031025;28;20024;-61
2023/10/08 11:03:15;;;;;;;7.38;6.28;;;;;;;;;;5030629;28;20025;-60
2023/10/08 11:05:47;;;;;;;24.00;22.30;;;;;;;;;;5030598;28;20159;-61
2023/10/08 11:08:14;;;;;;;19.30;17.77;;;;;;;;;;5030559;28;20542;-63
2023/10/08 11:10:50;;;;;;;15.02;13.80;;;;;;;;;;5033600;28;20029;-61
2023/10/08 11:13:16;;;;;;;15.45;14.25;;;;;;;;;;5034807;28;20089;-60
2023/10/08 11:15:49;;;;;;;27.25;25.40;;;;;;;;;;5033555;28;20169;-61
2023/10/08 11:18:15;;;;;;;18.60;17.23;;;;;;;;;;5034611;28;20025;-60
2023/10/08 11:20:40;;;;;;;20.75;19.17;;;;;;;;;;5033939;28;20033;-62
2023/10/08 11:23:19;;;;;;;22.50;20.67;;;;;;;;;;5034803;28;20044;-61
2023/10/08 11:25:54;;;;;;;11.73;10.68;;;;;;;;;;5034693;28;20434;-62
2023/10/08 11:28:19;;;;;;;19.63;17.88;;;;;;;;;;5034841;28;20022;-62
2023/10/08 11:30:46;;;;;;;27.57;25.53;;;;;;;;;;5034073;28;20390;-61
2023/10/08 11:33:15;;;;;;;20.10;18.48;;;;;;;;;;5034595;28;20045;-61
2023/10/08 11:36:00;;;;;;;15.75;14.43;;;;;;;;;;5034569;28;20545;-61
2023/10/08 11:38:27;;;;;;;32.65;29.92;;;;;;;;;;5034373;28;20448;-61
2023/10/08 11:41:22;;;;;;;16.27;14.98;;;;;;;;;;5034669;28;20056;-60
2023/10/08 11:43:48;;;;;;;37.85;35.65;;;;;;;;;;5035112;28;20361;-60
2023/10/08 11:46:14;;;;;;;7.70;4.57;;;;;;;;;;5034759;28;20448;-62
2023/10/08 11:48:43;;;;;;;23.55;22.00;;;;;;;;;;5035307;28;20033;-59
2023/10/08 11:51:11;;;;;;;14.80;13.60;;;;;;;;;;5034141;28;20018;-60
2023/10/08 11:53:37;;;;;;;13.93;12.55;;;;;;;;;;5034248;28;20021;-61
2023/10/08 11:56:02;;;;;;;28.10;26.10;;;;;;;;;;5034034;28;20087;-61
2023/10/08 11:58:37;;;;;;;17.40;15.93;;;;;;;;;;5034701;28;20196;-61
2023/10/08 12:01:03;;;;;;;19.48;17.90;;;;;;;;;;5033865;28;20017;-61
2023/10/08 12:03:28;;;;;;;5.90;3.70;;;;;;;;;;5034393;28;20021;-59
2023/10/08 12:05:59;;;;;;;17.15;15.75;;;;;;;;;;5033727;28;20021;-61
2023/10/08 12:08:27;;;;;;;15.15;13.90;;;;;;;;;;5033926;28;20026;-60
2023/10/08 12:10:54;;;;;;;60.15;56.75;;;;;;;;;;5033677;28;20032;-59
2023/10/08 12:13:23;;;;;;;14.88;13.75;;;;;;;;;;5033775;28;20538;-60
2023/10/08 12:15:50;;;;;;;55.33;52.13;;;;;;;;;;5033386;28;20106;-60
2023/10/08 12:18:16;;;;;;;7.20;4.40;;;;;;;;;;5033709;28;20563;-59
2023/10/08 12:20:45;;;;;;;15.65;14.30;;;;;;;;;;5032646;28;20029;-60
2023/10/08 12:23:10;;;;;;;22.80;21.13;;;;;;;;;;5033556;28;20025;-60
2023/10/08 12:25:37;;;;;;;7.22;3.72;;;;;;;;;;5033555;28;20071;-60
2023/10/08 12:28:03;;;;;;;21.63;20.20;;;;;;;;;;5033066;28;20025;-60
2023/10/08 12:30:30;;;;;;;10.10;8.75;;;;;;;;;;5032338;28;20020;-60
2023/10/08 12:32:57;;;;;;;34.67;32.65;;;;;;;;;;5033042;28;20089;-59
2023/10/08 12:35:24;;;;;;;;;;;;;;;;;;5033770;28;20073;-61
2023/10/08 12:37:49;;;;;;;31.15;29.30;;;;;;;;;;5032907;28;19996;-60
2023/10/08 12:40:23;;;;;;;9.05;7.88;;;;;;;;;;5032862;28;20113;-61
2023/10/08 12:42:51;;;;;;;16.65;15.50;;;;;;;;;;5034039;28;20373;-59
2023/10/08 12:45:20;;;;;;;10.40;9.38;;;;;;;;;;5033912;28;20021;-60
2023/10/08 12:47:52;;;;;;;15.77;14.57;;;;;;;;;;5032899;28;20026;-61
2023/10/08 12:50:42;;;;;;;13.27;12.13;;;;;;;;;;5032229;28;20027;-61
2023/10/08 12:53:11;;;;;;;24.40;22.80;;;;;;;;;;5033298;28;20096;-59
2023/10/08 12:55:39;;;;;;;25.83;23.88;;;;;;;;;;5031401;28;20018;-61
2023/10/08 12:58:10;;;;;;;84.28;79.63;;;;;;;;;;5032968;28;20056;-61
2023/10/08 13:00:41;;;;;;;40.00;37.70;;;;;;;;;;5032372;28;20021;-60
2023/10/08 13:03:14;;;;;;;17.63;16.20;;;;;;;;;;5033029;28;20029;-59
2023/10/08 13:05:44;;;;;;;74.25;70.10;;;;;;;;;;5032875;28;20029;-61
2023/10/08 13:08:09;;;;;;;15.48;14.32;;;;;;;;;;5032869;28;20029;-61
2023/10/08 13:10:35;;;;;;;56.65;53.35;;;;;;;;;;5032317;28;20124;-59
2023/10/08 13:13:00;;;;;;;16.40;15.18;;;;;;;;;;5032686;28;20029;-59
2023/10/08 13:15:26;;;;;;;9.95;8.50;;;;;;;;;;5032683;28;20526;-60
2023/10/08 13:17:51;;;;;;;35.55;33.33;;;;;;;;;;5032804;28;20025;-59
2023/10/08 13:20:17;;;;;;;15.73;14.43;;;;;;;;;;5032145;28;20530;-60
2023/10/08 13:22:43;;;;;;;17.48;16.10;;;;;;;;;;5032595;28;20480;-60
2023/10/08 13:25:08;;;;;;;12.27;11.38;;;;;;;;;;5032458;28;20032;-61
2023/10/08 13:27:33;;;;;;;18.33;17.13;;;;;;;;;;5032260;28;20017;-60
2023/10/08 13:30:00;;;;;;;20.80;19.30;;;;;;;;;;5031818;28;20525;-60
2023/10/08 13:32:25;;;;;;;6.00;4.25;;;;;;;;;;5031362;28;20493;-61
2023/10/08 13:34:51;;;;;;;55.23;52.03;;;;;;;;;;5032165;28;20061;-60
2023/10/08 13:37:16;;;;;;;32.40;30.40;;;;;;;;;;5041650;28;20017;-60
2023/10/08 13:39:42;;;;;;;22.27;20.60;;;;;;;;;;5051572;28;20017;-59
2023/10/08 13:42:07;;;;;;;58.97;55.57;;;;;;;;;;5051798;28;20078;-60
2023/10/08 13:44:32;;;;;;;7.85;7.05;;;;;;;;;;5051596;28;20450;-60
2023/10/08 13:46:58;;;;;;;31.25;29.30;;;;;;;;;;5051830;28;20421;-59
2023/10/08 13:49:26;;;;;;;122.82;115.85;;;;;;;;;;5049771;28;20029;-61
2023/10/08 13:51:55;;;;;;;59.38;56.00;;;;;;;;;;5052107;28;20043;-60
2023/10/08 13:54:20;;;;;;;20.25;18.88;;;;;;;;;;5050646;28;20036;-60
2023/10/08 13:56:48;;;;;;;95.90;90.47;;;;;;;;;;5051770;28;20078;-61
2023/10/08 13:59:13;;;;;;;24.60;22.98;;;;;;;;;;5051313;28;20507;-60
2023/10/08 14:01:40;;;;;;;40.40;38.13;;;;;;;;;;5051935;28;20029;-59
2023/10/08 14:04:06;;;;;;;36.80;34.72;;;;;;;;;;5052012;28;20063;-60
2023/10/08 14:06:32;;;;;;;25.08;23.40;;;;;;;;;;5050712;28;20472;-61
2023/10/08 14:08:57;;;;;;;11.93;10.98;;;;;;;;;;5051493;28;20408;-61
2023/10/08 14:11:29;;;;;;;7.10;5.07;;;;;;;;;;5050895;28;20017;-61
2023/10/08 14:13:55;;;;;;;10.32;9.40;;;;;;;;;;5045184;28;20044;-60
2023/10/08 14:16:23;;;;;;;27.80;26.05;;;;;;;;;;5031586;28;20029;-60
2023/10/08 14:18:53;;;;;;;25.20;23.25;;;;;;;;;;5032916;28;20010;-61
2023/10/08 14:21:19;;;;;;;16.73;15.40;;;;;;;;;;5031650;28;20363;-61
2023/10/08 14:23:44;;;;;;;7.60;6.87;;;;;;;;;;5031153;28;20480;-61
2023/10/08 14:26:10;;;;;;;13.03;12.07;;;;;;;;;;5031114;28;20418;-61
2023/10/08 14:28:51;;;;;;;49.10;46.40;;;;;;;;;;5031138;28;20052;-61
2023/10/08 14:31:16;;;;;;;6.32;5.03;;;;;;;;;;5030983;28;20083;-61
2023/10/08 14:33:43;;;;;;;55.45;52.28;;;;;;;;;;5031211;28;20017;-59
2023/10/08 14:44:20;;;;;;;7.85;5.35;;;;;;;;;;5032404;28;20121;-60
2023/10/08 14:46:45;;;;;;;14.67;13.40;;;;;;;;;;5032606;28;20041;-59
2023/10/08 14:49:11;;;;;;;12.40;11.47;;;;;;;;;;5032625;28;20473;-61
2023/10/08 14:51:37;;;;;;;13.97;12.77;;;;;;;;;;5032548;28;20549;-59
2023/10/08 14:54:03;;;;;;;19.63;17.92;;;;;;;;;;5031232;28;20010;-60
2023/10/08 14:56:32;;;;;;;10.43;9.38;;;;;;;;;;5030106;28;20024;-61
2023/10/08 14:58:57;;;;;;;44.97;42.20;;;;;;;;;;5030805;28;20013;-60
2023/10/08 15:01:25;;;;;;;37.47;35.17;;;;;;;;;;5030786;28;20040;-60
2023/10/08 15:03:51;;;;;;;55.67;52.53;;;;;;;;;;5031226;28;20037;-60
2023/10/08 15:06:19;;;;;;;9.15;8.27;;;;;;;;;;5029781;28;20022;-60
2023/10/08 15:08:44;;;;;;;49.28;46.15;;;;;;;;;;5030687;28;20025;-60
2023/10/08 15:11:10;;;;;;;9.33;8.47;;;;;;;;;;5030536;28;20092;-60
2023/10/08 15:13:38;;;;;;;28.55;26.52;;;;;;;;;;5030451;28;20045;-59
2023/10/08 15:16:04;;;;;;;97.60;92.35;;;;;;;;;;5030473;28;20029;-60
2023/10/08 15:18:31;;;;;;;40.17;37.67;;;;;;;;;;5030716;28;20394;-60
2023/10/08 15:20:57;;;;;;;55.05;51.85;;;;;;;;;;5028855;28;20021;-60
2023/10/08 15:23:25;;;;;;;28.65;26.90;;;;;;;;;;5030501;28;20013;-60
2023/10/08 15:25:50;;;;;;;67.47;63.78;;;;;;;;;;5028973;28;20232;-59
2023/10/08 15:28:15;;;;;;;12.87;11.73;;;;;;;;;;5030814;28;20104;-59
2023/10/08 15:30:41;;;;;;;21.00;19.53;;;;;;;;;;5029562;28;20013;-60
2023/10/08 15:33:07;;;;;;;49.67;46.90;;;;;;;;;;5030853;28;20014;-60
2023/10/08 15:35:33;;;;;;;22.65;21.08;;;;;;;;;;5030711;28;20025;-60
2023/10/08 15:37:58;;;;;;;42.15;39.38;;;;;;;;;;5030423;28;20025;-61
2023/10/08 15:40:23;;;;;;;11.68;10.32;;;;;;;;;;5029919;28;20028;-60